sensor_id;sensor_type;location;lat;lon;timestamp;pressure;altitude;pressure_sealevel;temperature;humidity
35519;BME280;21627;48.216;16.482;2023-04-06T00:01:15;100196.13;;;0.52;69.89
35519;BME280;21627;48.216;16.482;2023-04-06T00:03:42;100190.19;;;0.52;70.42
35519;BME280;21627;48.216;16.482;2023-04-06T00:06:10;100182.91;;;0.41;70.31
35519;BME280;21627;48.216;16.482;2023-04-06T00:08:37;100186.47;;;0.45;70.69
35519;BME280;21627;48.216;16.482;2023-04-06T00:11:04;100171.66;;;0.36;70.56
35519;BME280;21627;48.216;16.482;2023-04-06T00:13:31;100186.19;;;0.39;70.89
35519;BME280;21627;48.216;16.482;2023-04-06T00:15:58;100178.63;;;0.40;71.27
35519;BME280;21627;48.216;16.482;2023-04-06T00:18:25;100175.72;;;0.33;71.53
35519;BME280;21627;48.216;16.482;2023-04-06T00:20:53;100173.88;;;0.30;71.08
35519;BME280;21627;48.216;16.482;2023-04-06T00:23:20;100183.50;;;0.36;70.85
35519;BME280;21627;48.216;16.482;2023-04-06T00:25:48;100173.09;;;0.31;70.52
35519;BME280;21627;48.216;16.482;2023-04-06T00:28:15;100179.19;;;0.35;70.57
35519;BME280;21627;48.216;16.482;2023-04-06T00:30:42;100169.59;;;0.29;70.20
35519;BME280;21627;48.216;16.482;2023-04-06T00:33:09;100184.38;;;0.36;70.27
35519;BME280;21627;48.216;16.482;2023-04-06T00:35:36;100175.88;;;0.36;70.76
35519;BME280;21627;48.216;16.482;2023-04-06T00:38:03;100168.25;;;0.36;70.41
35519;BME280;21627;48.216;16.482;2023-04-06T00:40:30;100167.28;;;0.34;70.39
35519;BME280;21627;48.216;16.482;2023-04-06T00:42:59;100175.72;;;0.33;70.28
35519;BME280;21627;48.216;16.482;2023-04-06T00:45:26;100178.19;;;0.31;70.27
35519;BME280;21627;48.216;16.482;2023-04-06T00:47:54;100160.06;;;0.25;70.15
35519;BME280;21627;48.216;16.482;2023-04-06T00:50:21;100172.00;;;0.26;70.01
35519;BME280;21627;48.216;16.482;2023-04-06T00:52:48;100166.78;;;0.23;70.41
35519;BME280;21627;48.216;16.482;2023-04-06T00:55:17;100159.78;;;0.19;70.48
35519;BME280;21627;48.216;16.482;2023-04-06T00:57:44;100157.25;;;0.19;70.81
35519;BME280;21627;48.216;16.482;2023-04-06T01:00:12;100148.63;;;0.15;71.23
35519;BME280;21627;48.216;16.482;2023-04-06T01:02:39;100167.69;;;0.25;71.03
35519;BME280;21627;48.216;16.482;2023-04-06T01:05:07;100156.53;;;0.21;71.70
35519;BME280;21627;48.216;16.482;2023-04-06T01:07:34;100155.44;;;0.16;71.17
35519;BME280;21627;48.216;16.482;2023-04-06T01:10:03;100163.34;;;0.22;70.60
35519;BME280;21627;48.216;16.482;2023-04-06T01:12:30;100150.34;;;0.16;71.17
35519;BME280;21627;48.216;16.482;2023-04-06T01:14:57;100159.66;;;0.16;71.10
35519;BME280;21627;48.216;16.482;2023-04-06T01:17:24;100156.88;;;0.11;71.10
35519;BME280;21627;48.216;16.482;2023-04-06T01:19:51;100151.66;;;0.08;71.70
35519;BME280;21627;48.216;16.482;2023-04-06T01:22:20;100153.38;;;0.09;71.83
35519;BME280;21627;48.216;16.482;2023-04-06T01:24:47;100160.25;;;0.10;72.17
35519;BME280;21627;48.216;16.482;2023-04-06T01:27:14;100151.44;;;0.04;72.03
35519;BME280;21627;48.216;16.482;2023-04-06T01:29:42;100155.88;;;0.08;72.17
35519;BME280;21627;48.216;16.482;2023-04-06T01:32:09;100142.06;;;0.03;71.68
35519;BME280;21627;48.216;16.482;2023-04-06T01:34:36;100148.25;;;0.08;71.64
35519;BME280;21627;48.216;16.482;2023-04-06T01:37:04;100145.53;;;0.05;72.01
35519;BME280;21627;48.216;16.482;2023-04-06T01:39:31;100141.34;;;0.05;72.14
35519;BME280;21627;48.216;16.482;2023-04-06T01:41:58;100138.41;;;-0.03;72.06
35519;BME280;21627;48.216;16.482;2023-04-06T01:44:25;100146.13;;;-0.01;71.43
35519;BME280;21627;48.216;16.482;2023-04-06T01:46:52;100136.81;;;-0.01;71.67
35519;BME280;21627;48.216;16.482;2023-04-06T01:49:20;100137.72;;;0.00;71.66
35519;BME280;21627;48.216;16.482;2023-04-06T01:51:47;100150.34;;;-0.02;72.07
35519;BME280;21627;48.216;16.482;2023-04-06T01:54:14;100144.31;;;-0.04;72.39
35519;BME280;21627;48.216;16.482;2023-04-06T01:56:41;100151.13;;;-0.03;71.64
35519;BME280;21627;48.216;16.482;2023-04-06T01:59:08;100145.91;;;-0.06;71.96
35519;BME280;21627;48.216;16.482;2023-04-06T02:01:36;100143.13;;;-0.10;71.78
35519;BME280;21627;48.216;16.482;2023-04-06T02:04:03;100145.16;;;-0.03;72.34
35519;BME280;21627;48.216;16.482;2023-04-06T02:06:30;100145.91;;;-0.06;72.36
35519;BME280;21627;48.216;16.482;2023-04-06T02:08:58;100147.34;;;-0.11;72.14
35519;BME280;21627;48.216;16.482;2023-04-06T02:11:25;100137.31;;;-0.08;72.47
35519;BME280;21627;48.216;16.482;2023-04-06T02:13:52;100140.75;;;-0.07;72.36
35519;BME280;21627;48.216;16.482;2023-04-06T02:16:19;100130.13;;;-0.16;72.83
35519;BME280;21627;48.216;16.482;2023-04-06T02:18:46;100147.09;;;-0.15;72.63
35519;BME280;21627;48.216;16.482;2023-04-06T02:21:13;100144.50;;;-0.17;72.76
35519;BME280;21627;48.216;16.482;2023-04-06T02:23:44;100146.09;;;-0.19;72.59
35519;BME280;21627;48.216;16.482;2023-04-06T02:26:11;100143.28;;;-0.25;72.89
35519;BME280;21627;48.216;16.482;2023-04-06T02:28:38;100138.19;;;-0.25;72.80
35519;BME280;21627;48.216;16.482;2023-04-06T02:31:05;100140.56;;;-0.28;72.84
35519;BME280;21627;48.216;16.482;2023-04-06T02:33:32;100132.88;;;-0.30;73.15
35519;BME280;21627;48.216;16.482;2023-04-06T02:35:59;100131.06;;;-0.32;73.13
35519;BME280;21627;48.216;16.482;2023-04-06T02:38:26;100140.34;;;-0.33;73.04
35519;BME280;21627;48.216;16.482;2023-04-06T02:40:54;100131.84;;;-0.33;73.29
35519;BME280;21627;48.216;16.482;2023-04-06T02:43:21;100122.09;;;-0.42;73.11
35519;BME280;21627;48.216;16.482;2023-04-06T02:45:48;100134.31;;;-0.35;72.94
35519;BME280;21627;48.216;16.482;2023-04-06T02:48:15;100117.88;;;-0.41;73.28
35519;BME280;21627;48.216;16.482;2023-04-06T02:50:42;100131.69;;;-0.36;72.89
35519;BME280;21627;48.216;16.482;2023-04-06T02:53:09;100136.78;;;-0.36;73.10
35519;BME280;21627;48.216;16.482;2023-04-06T02:55:36;100139.41;;;-0.35;72.79
35519;BME280;21627;48.216;16.482;2023-04-06T02:58:03;100131.84;;;-0.33;72.61
35519;BME280;21627;48.216;16.482;2023-04-06T03:00:31;100115.19;;;-0.45;71.73
35519;BME280;21627;48.216;16.482;2023-04-06T03:02:58;100129.06;;;-0.38;72.12
35519;BME280;21627;48.216;16.482;2023-04-06T03:05:25;100134.13;;;-0.38;72.03
35519;BME280;21627;48.216;16.482;2023-04-06T03:07:53;100137.50;;;-0.39;72.34
35519;BME280;21627;48.216;16.482;2023-04-06T03:10:20;100137.56;;;-0.37;72.32
35519;BME280;21627;48.216;16.482;2023-04-06T03:12:47;100125.28;;;-0.46;72.39
35519;BME280;21627;48.216;16.482;2023-04-06T03:15:14;100132.31;;;-0.40;72.77
35519;BME280;21627;48.216;16.482;2023-04-06T03:17:41;100145.81;;;-0.41;72.80
35519;BME280;21627;48.216;16.482;2023-04-06T03:20:09;100136.25;;;-0.47;72.72
35519;BME280;21627;48.216;16.482;2023-04-06T03:22:36;100142.41;;;-0.42;72.66
35519;BME280;21627;48.216;16.482;2023-04-06T03:25:03;100144.88;;;-0.44;73.03
35519;BME280;21627;48.216;16.482;2023-04-06T03:27:31;100144.72;;;-0.47;73.34
35519;BME280;21627;48.216;16.482;2023-04-06T03:29:58;100147.03;;;-0.51;73.21
35519;BME280;21627;48.216;16.482;2023-04-06T03:32:25;100147.97;;;-0.49;72.73
35519;BME280;21627;48.216;16.482;2023-04-06T03:34:53;100149.34;;;-0.56;73.00
35519;BME280;21627;48.216;16.482;2023-04-06T03:37:20;100146.06;;;-0.53;73.03
35519;BME280;21627;48.216;16.482;2023-04-06T03:39:47;100154.50;;;-0.54;72.82
35519;BME280;21627;48.216;16.482;2023-04-06T03:42:14;100155.38;;;-0.54;73.05
35519;BME280;21627;48.216;16.482;2023-04-06T03:44:41;100144.91;;;-0.60;73.44
35519;BME280;21627;48.216;16.482;2023-04-06T03:47:08;100147.44;;;-0.60;73.04
35519;BME280;21627;48.216;16.482;2023-04-06T03:49:35;100151.97;;;-0.54;73.46
35519;BME280;21627;48.216;16.482;2023-04-06T03:52:05;100149.03;;;-0.62;73.61
35519;BME280;21627;48.216;16.482;2023-04-06T03:54:32;100151.44;;;-0.65;74.03
35519;BME280;21627;48.216;16.482;2023-04-06T03:56:59;100154.75;;;-0.66;74.08
35519;BME280;21627;48.216;16.482;2023-04-06T03:59:27;100156.31;;;-0.68;73.84
35519;BME280;21627;48.216;16.482;2023-04-06T04:01:54;100162.22;;;-0.69;73.96
35519;BME280;21627;48.216;16.482;2023-04-06T04:04:21;100158.72;;;-0.71;73.98
35519;BME280;21627;48.216;16.482;2023-04-06T04:06:48;100154.44;;;-0.72;73.96
35519;BME280;21627;48.216;16.482;2023-04-06T04:09:15;100157.53;;;-0.78;74.28
35519;BME280;21627;48.216;16.482;2023-04-06T04:11:43;100144.75;;;-0.79;74.07
35519;BME280;21627;48.216;16.482;2023-04-06T04:14:10;100148.09;;;-0.80;74.01
35519;BME280;21627;48.216;16.482;2023-04-06T04:16:37;100151.66;;;-0.77;74.23
35519;BME280;21627;48.216;16.482;2023-04-06T04:19:06;100155.88;;;-0.77;74.39
35519;BME280;21627;48.216;16.482;2023-04-06T04:21:41;100164.44;;;-0.75;74.15
35519;BME280;21627;48.216;16.482;2023-04-06T04:24:08;100166.09;;;-0.76;74.08
35519;BME280;21627;48.216;16.482;2023-04-06T04:26:35;100169.19;;;-0.65;73.02
35519;BME280;21627;48.216;16.482;2023-04-06T04:29:02;100161.91;;;-0.75;72.69
35519;BME280;21627;48.216;16.482;2023-04-06T04:31:29;100171.41;;;-0.71;73.05
35519;BME280;21627;48.216;16.482;2023-04-06T04:33:59;100167.19;;;-0.71;73.43
35519;BME280;21627;48.216;16.482;2023-04-06T04:36:26;100165.16;;;-0.78;73.70
35519;BME280;21627;48.216;16.482;2023-04-06T04:38:54;100169.72;;;-0.71;73.54
35519;BME280;21627;48.216;16.482;2023-04-06T04:41:21;100171.41;;;-0.71;73.58
35519;BME280;21627;48.216;16.482;2023-04-06T04:43:48;100161.00;;;-0.76;73.47
35519;BME280;21627;48.216;16.482;2023-04-06T04:46:15;100163.16;;;-0.67;73.74
35519;BME280;21627;48.216;16.482;2023-04-06T04:48:42;100169.97;;;-0.66;73.18
35519;BME280;21627;48.216;16.482;2023-04-06T04:51:09;100169.09;;;-0.67;73.62
35519;BME280;21627;48.216;16.482;2023-04-06T04:53:37;100167.03;;;-0.74;73.66
35519;BME280;21627;48.216;16.482;2023-04-06T04:56:04;100164.84;;;-0.68;73.93
35519;BME280;21627;48.216;16.482;2023-04-06T04:58:31;100171.09;;;-0.61;73.86
35519;BME280;21627;48.216;16.482;2023-04-06T05:00:58;100168.72;;;-0.58;74.21
35519;BME280;21627;48.216;16.482;2023-04-06T05:03:26;100167.06;;;-0.57;74.65
35519;BME280;21627;48.216;16.482;2023-04-06T05:05:54;100162.84;;;-0.57;74.28
35519;BME280;21627;48.216;16.482;2023-04-06T05:08:21;100154.34;;;-0.57;73.94
35519;BME280;21627;48.216;16.482;2023-04-06T05:10:48;100159.09;;;-0.47;73.90
35519;BME280;21627;48.216;16.482;2023-04-06T05:13:16;100165.19;;;-0.27;81.18
35519;BME280;21627;48.216;16.482;2023-04-06T05:15:43;100163.06;;;-0.18;75.22
35519;BME280;21627;48.216;16.482;2023-04-06T05:18:12;100160.47;;;-0.19;74.03
35519;BME280;21627;48.216;16.482;2023-04-06T05:20:39;100153.63;;;-0.20;74.35
35519;BME280;21627;48.216;16.482;2023-04-06T05:23:07;100159.75;;;-0.17;73.53
35519;BME280;21627;48.216;16.482;2023-04-06T05:25:34;100160.38;;;-0.05;72.15
35519;BME280;21627;48.216;16.482;2023-04-06T05:28:02;100158.19;;;0.03;70.77
35519;BME280;21627;48.216;16.482;2023-04-06T05:30:29;100152.66;;;0.12;71.19
35519;BME280;21627;48.216;16.482;2023-04-06T05:32:57;100153.34;;;0.26;70.28
35519;BME280;21627;48.216;16.482;2023-04-06T05:35:25;100157.63;;;0.27;71.07
35519;BME280;21627;48.216;16.482;2023-04-06T05:37:52;100152.53;;;0.27;71.21
35519;BME280;21627;48.216;16.482;2023-04-06T05:40:19;100153.03;;;0.37;71.31
35519;BME280;21627;48.216;16.482;2023-04-06T05:42:47;100153.97;;;0.57;70.32
35519;BME280;21627;48.216;16.482;2023-04-06T05:45:14;100158.19;;;0.57;71.06
35519;BME280;21627;48.216;16.482;2023-04-06T05:47:44;100162.63;;;0.61;69.79
35519;BME280;21627;48.216;16.482;2023-04-06T05:50:14;100151.78;;;0.65;70.29
35519;BME280;21627;48.216;16.482;2023-04-06T05:52:42;100167.81;;;0.82;69.88
35519;BME280;21627;48.216;16.482;2023-04-06T05:55:11;100165.09;;;0.97;68.95
35519;BME280;21627;48.216;16.482;2023-04-06T05:57:38;100156.59;;;0.96;67.52
35519;BME280;21627;48.216;16.482;2023-04-06T06:00:07;100174.38;;;1.14;67.15
35519;BME280;21627;48.216;16.482;2023-04-06T06:02:36;100167.81;;;1.19;67.87
35519;BME280;21627;48.216;16.482;2023-04-06T06:05:04;100164.31;;;1.17;68.13
35519;BME280;21627;48.216;16.482;2023-04-06T06:07:31;100168.25;;;1.30;66.70
35519;BME280;21627;48.216;16.482;2023-04-06T06:09:59;100169.47;;;1.38;67.52
35519;BME280;21627;48.216;16.482;2023-04-06T06:12:26;100170.94;;;1.52;66.37
35519;BME280;21627;48.216;16.482;2023-04-06T06:14:54;100161.69;;;1.55;65.72
35519;BME280;21627;48.216;16.482;2023-04-06T06:17:21;100165.75;;;1.70;65.11
35519;BME280;21627;48.216;16.482;2023-04-06T06:19:48;100171.44;;;1.84;64.03
35519;BME280;21627;48.216;16.482;2023-04-06T06:22:15;100159.16;;;1.76;65.36
35519;BME280;21627;48.216;16.482;2023-04-06T06:24:43;100165.00;;;1.94;64.52
35519;BME280;21627;48.216;16.482;2023-04-06T06:27:10;100164.47;;;2.01;65.42
35519;BME280;21627;48.216;16.482;2023-04-06T06:29:37;100161.34;;;2.08;64.91
35519;BME280;21627;48.216;16.482;2023-04-06T06:32:04;100168.63;;;2.20;63.32
35519;BME280;21627;48.216;16.482;2023-04-06T06:34:32;100172.28;;;2.27;63.61
35519;BME280;21627;48.216;16.482;2023-04-06T06:36:59;100163.66;;;2.23;64.00
35519;BME280;21627;48.216;16.482;2023-04-06T06:39:26;100166.63;;;2.34;64.54
35519;BME280;21627;48.216;16.482;2023-04-06T06:41:53;100161.91;;;2.43;63.60
35519;BME280;21627;48.216;16.482;2023-04-06T06:44:22;100165.41;;;2.68;63.14
35519;BME280;21627;48.216;16.482;2023-04-06T06:46:49;100168.88;;;2.70;62.68
35519;BME280;21627;48.216;16.482;2023-04-06T06:49:16;100171.59;;;2.74;62.48
35519;BME280;21627;48.216;16.482;2023-04-06T06:51:43;100169.94;;;2.75;63.33
35519;BME280;21627;48.216;16.482;2023-04-06T06:54:11;100149.53;;;2.76;62.54
35519;BME280;21627;48.216;16.482;2023-04-06T06:56:38;100171.47;;;2.94;63.04
35519;BME280;21627;48.216;16.482;2023-04-06T06:59:06;100176.47;;;3.13;62.43
35519;BME280;21627;48.216;16.482;2023-04-06T07:01:33;100163.69;;;3.13;61.29
35519;BME280;21627;48.216;16.482;2023-04-06T07:04:01;100172.59;;;3.24;62.45
35519;BME280;21627;48.216;16.482;2023-04-06T07:06:29;100167.16;;;3.39;61.21
35519;BME280;21627;48.216;16.482;2023-04-06T07:08:56;100172.66;;;3.50;61.62
35519;BME280;21627;48.216;16.482;2023-04-06T07:11:23;100168.09;;;3.65;60.64
35519;BME280;21627;48.216;16.482;2023-04-06T07:13:50;100166.06;;;3.81;61.22
35519;BME280;21627;48.216;16.482;2023-04-06T07:16:18;100158.56;;;3.87;61.39
35519;BME280;21627;48.216;16.482;2023-04-06T07:18:45;100160.25;;;4.12;59.89
35519;BME280;21627;48.216;16.482;2023-04-06T07:21:12;100153.78;;;4.23;58.80
35519;BME280;21627;48.216;16.482;2023-04-06T07:23:40;100163.06;;;4.47;60.14
35519;BME280;21627;48.216;16.482;2023-04-06T07:26:07;100163.34;;;4.56;58.93
35519;BME280;21627;48.216;16.482;2023-04-06T07:28:34;100167.25;;;4.72;59.40
35519;BME280;21627;48.216;16.482;2023-04-06T07:31:01;100161.94;;;4.94;57.86
35519;BME280;21627;48.216;16.482;2023-04-06T07:33:28;100154.03;;;5.17;57.28
35519;BME280;21627;48.216;16.482;2023-04-06T07:35:56;100148.44;;;5.30;56.39
35519;BME280;21627;48.216;16.482;2023-04-06T07:38:25;100153.13;;;5.47;55.69
35519;BME280;21627;48.216;16.482;2023-04-06T07:40:52;100159.47;;;5.59;54.60
35519;BME280;21627;48.216;16.482;2023-04-06T07:43:20;100164.91;;;5.72;54.51
35519;BME280;21627;48.216;16.482;2023-04-06T07:45:47;100167.88;;;5.87;54.34
35519;BME280;21627;48.216;16.482;2023-04-06T07:48:16;100151.09;;;5.98;53.01
35519;BME280;21627;48.216;16.482;2023-04-06T07:50:43;100159.69;;;6.00;54.31
35519;BME280;21627;48.216;16.482;2023-04-06T07:53:11;100152.44;;;6.19;53.78
35519;BME280;21627;48.216;16.482;2023-04-06T07:55:38;100164.84;;;6.37;53.04
35519;BME280;21627;48.216;16.482;2023-04-06T07:58:05;100141.63;;;6.32;52.64
35519;BME280;21627;48.216;16.482;2023-04-06T08:00:33;100164.28;;;6.50;51.48
35519;BME280;21627;48.216;16.482;2023-04-06T08:03:00;100155.78;;;6.51;51.07
35519;BME280;21627;48.216;16.482;2023-04-06T08:05:28;100163.69;;;6.60;51.54
35519;BME280;21627;48.216;16.482;2023-04-06T08:07:55;100162.22;;;6.71;51.64
35519;BME280;21627;48.216;16.482;2023-04-06T08:10:22;100156.78;;;6.58;51.06
35519;BME280;21627;48.216;16.482;2023-04-06T08:12:49;100162.06;;;6.64;51.55
35519;BME280;21627;48.216;16.482;2023-04-06T08:15:16;100150.34;;;6.77;51.82
35519;BME280;21627;48.216;16.482;2023-04-06T08:17:45;100153.75;;;7.17;50.78
35519;BME280;21627;48.216;16.482;2023-04-06T08:20:12;100150.56;;;7.28;50.32
35519;BME280;21627;48.216;16.482;2023-04-06T08:22:39;100153.50;;;7.48;49.61
35519;BME280;21627;48.216;16.482;2023-04-06T08:25:07;100154.66;;;7.64;49.32
35519;BME280;21627;48.216;16.482;2023-04-06T08:27:34;100144.81;;;7.90;48.61
35519;BME280;21627;48.216;16.482;2023-04-06T08:30:01;100149.47;;;8.13;49.19
35519;BME280;21627;48.216;16.482;2023-04-06T08:32:29;100147.19;;;8.31;47.75
35519;BME280;21627;48.216;16.482;2023-04-06T08:34:58;100140.63;;;8.49;47.61
35519;BME280;21627;48.216;16.482;2023-04-06T08:37:25;100143.38;;;8.59;47.42
35519;BME280;21627;48.216;16.482;2023-04-06T08:39:52;100144.38;;;8.71;47.15
35519;BME280;21627;48.216;16.482;2023-04-06T08:42:21;100131.56;;;8.75;46.68
35519;BME280;21627;48.216;16.482;2023-04-06T08:44:49;100141.19;;;8.92;46.31
35519;BME280;21627;48.216;16.482;2023-04-06T08:47:19;100140.38;;;8.94;44.26
35519;BME280;21627;48.216;16.482;2023-04-06T08:49:51;100136.28;;;9.12;44.92
35519;BME280;21627;48.216;16.482;2023-04-06T08:52:20;100138.09;;;9.17;45.18
35519;BME280;21627;48.216;16.482;2023-04-06T08:54:47;100138.03;;;9.13;44.86
35519;BME280;21627;48.216;16.482;2023-04-06T08:57:15;100123.63;;;9.30;45.45
35519;BME280;21627;48.216;16.482;2023-04-06T08:59:44;100130.69;;;9.48;44.20
35519;BME280;21627;48.216;16.482;2023-04-06T09:02:18;100123.16;;;9.68;44.47
35519;BME280;21627;48.216;16.482;2023-04-06T09:04:48;100127.47;;;9.70;43.72
35519;BME280;21627;48.216;16.482;2023-04-06T09:07:17;100120.72;;;9.86;43.10
35519;BME280;21627;48.216;16.482;2023-04-06T09:09:45;100110.41;;;9.86;44.11
35519;BME280;21627;48.216;16.482;2023-04-06T09:12:26;100112.19;;;9.95;44.58
35519;BME280;21627;48.216;16.482;2023-04-06T09:14:55;100105.38;;;10.03;43.11
35519;BME280;21627;48.216;16.482;2023-04-06T09:17:26;100107.25;;;10.24;42.89
35519;BME280;21627;48.216;16.482;2023-04-06T09:19:54;100097.78;;;10.25;42.56
35519;BME280;21627;48.216;16.482;2023-04-06T09:22:21;100096.16;;;10.40;41.30
35519;BME280;21627;48.216;16.482;2023-04-06T09:24:53;100085.94;;;10.54;41.80
35519;BME280;21627;48.216;16.482;2023-04-06T09:27:37;100092.94;;;10.83;41.26
35519;BME280;21627;48.216;16.482;2023-04-06T09:30:09;100084.41;;;11.02;39.23
35519;BME280;21627;48.216;16.482;2023-04-06T09:32:58;100083.59;;;11.17;38.77
35519;BME280;21627;48.216;16.482;2023-04-06T09:35:26;100065.50;;;11.22;38.12
35519;BME280;21627;48.216;16.482;2023-04-06T09:37:54;100067.25;;;11.29;38.05
35519;BME280;21627;48.216;16.482;2023-04-06T09:40:22;100074.19;;;11.52;38.57
35519;BME280;21627;48.216;16.482;2023-04-06T09:42:50;100081.09;;;11.59;38.16
35519;BME280;21627;48.216;16.482;2023-04-06T09:45:19;100071.59;;;11.53;38.99
35519;BME280;21627;48.216;16.482;2023-04-06T09:47:48;100060.31;;;11.31;37.22
35519;BME280;21627;48.216;16.482;2023-04-06T09:50:19;100070.66;;;11.10;37.80
35519;BME280;21627;48.216;16.482;2023-04-06T09:52:49;100063.69;;;11.01;38.26
35519;BME280;21627;48.216;16.482;2023-04-06T09:55:33;100061.22;;;11.44;38.78
35519;BME280;21627;48.216;16.482;2023-04-06T09:58:06;100048.25;;;11.41;36.11
35519;BME280;21627;48.216;16.482;2023-04-06T10:01:08;100050.00;;;11.79;36.41
35519;BME280;21627;48.216;16.482;2023-04-06T10:03:55;100056.03;;;11.35;36.21
35519;BME280;21627;48.216;16.482;2023-04-06T10:06:27;100047.38;;;11.28;37.93
35519;BME280;21627;48.216;16.482;2023-04-06T10:08:56;100055.06;;;10.93;37.47
35519;BME280;21627;48.216;16.482;2023-04-06T10:11:24;100048.94;;;10.69;36.96
35519;BME280;21627;48.216;16.482;2023-04-06T10:13:55;100046.38;;;10.80;37.91
35519;BME280;21627;48.216;16.482;2023-04-06T10:16:22;100033.53;;;11.08;37.53
35519;BME280;21627;48.216;16.482;2023-04-06T10:19:04;100034.44;;;11.39;35.69
35519;BME280;21627;48.216;16.482;2023-04-06T10:21:35;100018.09;;;11.67;35.88
35519;BME280;21627;48.216;16.482;2023-04-06T10:24:08;100026.72;;;11.94;35.58
35519;BME280;21627;48.216;16.482;2023-04-06T10:26:38;100011.16;;;11.79;34.81
35519;BME280;21627;48.216;16.482;2023-04-06T10:29:05;100006.84;;;11.76;34.67
35519;BME280;21627;48.216;16.482;2023-04-06T10:31:32;100008.56;;;12.08;35.49
35519;BME280;21627;48.216;16.482;2023-04-06T10:34:01;100011.09;;;12.31;34.47
35519;BME280;21627;48.216;16.482;2023-04-06T10:36:33;100009.38;;;12.19;34.09
35519;BME280;21627;48.216;16.482;2023-04-06T10:39:05;99999.03;;;12.22;33.94
35519;BME280;21627;48.216;16.482;2023-04-06T10:41:42;100006.84;;;12.10;33.99
35519;BME280;21627;48.216;16.482;2023-04-06T10:44:21;100004.25;;;11.76;33.48
35519;BME280;21627;48.216;16.482;2023-04-06T10:46:59;100008.59;;;11.97;34.90
35519;BME280;21627;48.216;16.482;2023-04-06T10:49:29;100003.41;;;11.97;33.43
35519;BME280;21627;48.216;16.482;2023-04-06T10:51:57;99993.88;;;11.72;34.54
35519;BME280;21627;48.216;16.482;2023-04-06T10:54:26;99996.50;;;11.50;33.98
35519;BME280;21627;48.216;16.482;2023-04-06T10:56:54;100003.41;;;11.42;34.61
35519;BME280;21627;48.216;16.482;2023-04-06T10:59:23;99995.63;;;11.80;34.87
35519;BME280;21627;48.216;16.482;2023-04-06T11:01:52;99994.66;;;12.37;34.42
35519;BME280;21627;48.216;16.482;2023-04-06T11:04:20;99988.38;;;12.88;32.70
35519;BME280;21627;48.216;16.482;2023-04-06T11:06:49;99978.84;;;12.87;31.50
35519;BME280;21627;48.216;16.482;2023-04-06T11:09:27;99978.97;;;12.64;31.57
35519;BME280;21627;48.216;16.482;2023-04-06T11:11:55;99982.50;;;12.51;32.44
35519;BME280;21627;48.216;16.482;2023-04-06T11:14:23;99980.84;;;12.28;32.72
35519;BME280;21627;48.216;16.482;2023-04-06T11:16:51;99966.03;;;12.61;32.04
35519;BME280;21627;48.216;16.482;2023-04-06T11:19:18;99966.88;;;12.63;31.86
35519;BME280;21627;48.216;16.482;2023-04-06T11:21:47;99970.44;;;12.41;31.35
35519;BME280;21627;48.216;16.482;2023-04-06T11:24:22;99965.16;;;12.65;32.57
35519;BME280;21627;48.216;16.482;2023-04-06T11:26:57;99972.94;;;12.59;31.13
35519;BME280;21627;48.216;16.482;2023-04-06T11:29:30;99959.19;;;12.45;30.47
35519;BME280;21627;48.216;16.482;2023-04-06T11:32:04;99949.66;;;12.48;31.40
35519;BME280;21627;48.216;16.482;2023-04-06T11:34:37;99934.91;;;12.56;32.30
35519;BME280;21627;48.216;16.482;2023-04-06T11:37:10;99934.00;;;12.68;31.65
35519;BME280;21627;48.216;16.482;2023-04-06T11:39:41;99945.09;;;12.93;30.33
35519;BME280;21627;48.216;16.482;2023-04-06T11:42:09;99945.13;;;12.86;30.72
35519;BME280;21627;48.216;16.482;2023-04-06T11:44:38;99929.50;;;12.98;31.04
35519;BME280;21627;48.216;16.482;2023-04-06T11:47:08;99925.94;;;13.05;30.64
35519;BME280;21627;48.216;16.482;2023-04-06T11:49:44;99918.69;;;13.50;30.84
35519;BME280;21627;48.216;16.482;2023-04-06T11:52:26;99919.50;;;13.58;31.01
35519;BME280;21627;48.216;16.482;2023-04-06T11:54:54;99917.47;;;13.87;29.82
35519;BME280;21627;48.216;16.482;2023-04-06T11:57:23;99916.47;;;14.00;29.75
35519;BME280;21627;48.216;16.482;2023-04-06T11:59:55;99920.19;;;13.76;30.43
35519;BME280;21627;48.216;16.482;2023-04-06T12:02:22;99923.53;;;13.89;29.54
35519;BME280;21627;48.216;16.482;2023-04-06T12:04:49;99913.38;;;13.62;29.43
35519;BME280;21627;48.216;16.482;2023-04-06T12:07:17;99910.44;;;13.95;31.68
35519;BME280;21627;48.216;16.482;2023-04-06T12:09:44;99906.09;;;13.97;30.15
35519;BME280;21627;48.216;16.482;2023-04-06T12:12:11;99902.06;;;14.42;29.34
35519;BME280;21627;48.216;16.482;2023-04-06T12:14:38;99899.47;;;14.44;29.25
35519;BME280;21627;48.216;16.482;2023-04-06T12:17:05;99887.06;;;14.64;29.16
35519;BME280;21627;48.216;16.482;2023-04-06T12:19:32;99897.09;;;14.89;29.99
35519;BME280;21627;48.216;16.482;2023-04-06T12:21:59;99894.59;;;14.83;29.12
35519;BME280;21627;48.216;16.482;2023-04-06T12:24:28;99874.78;;;14.71;29.19
35519;BME280;21627;48.216;16.482;2023-04-06T12:26:55;99881.63;;;14.80;28.83
35519;BME280;21627;48.216;16.482;2023-04-06T12:29:35;99869.78;;;14.59;29.37
35519;BME280;21627;48.216;16.482;2023-04-06T12:32:02;99878.22;;;14.08;29.51
35519;BME280;21627;48.216;16.482;2023-04-06T12:34:30;99888.16;;;13.72;29.38
35519;BME280;21627;48.216;16.482;2023-04-06T12:36:57;99872.19;;;13.21;29.22
35519;BME280;21627;48.216;16.482;2023-04-06T12:39:25;99874.75;;;13.26;29.59
35519;BME280;21627;48.216;16.482;2023-04-06T12:41:54;99878.22;;;13.29;30.07
35519;BME280;21627;48.216;16.482;2023-04-06T12:44:22;99883.41;;;13.26;30.96
35519;BME280;21627;48.216;16.482;2023-04-06T12:46:52;99873.91;;;13.22;31.60
35519;BME280;21627;48.216;16.482;2023-04-06T12:49:19;99871.38;;;13.16;30.56
35519;BME280;21627;48.216;16.482;2023-04-06T12:51:47;99872.13;;;13.33;31.42